createdAt,value
2018-04-25T00:00:40.022Z,101330.69
2018-04-25T00:02:18.669Z,101259.01
2018-04-25T00:03:55.819Z,101323.11
2018-04-25T00:05:34.862Z,101409.59
2018-04-25T00:07:12.164Z,101438.95
2018-04-25T00:08:50.546Z,101455.52
2018-04-25T00:10:27.636Z,101483.14
2018-04-25T00:12:05.001Z,101507.66
2018-04-25T00:13:43.565Z,101511.22
2018-04-25T00:15:21.415Z,101540.22
2018-04-25T00:16:59.728Z,101523.67
2018-04-25T00:18:37.091Z,101524.14
2018-04-25T00:20:14.443Z,101492.91
2018-04-25T00:21:52.566Z,101289.75
2018-04-25T00:23:31.401Z,101182.02
2018-04-25T00:25:09.278Z,101283.06
2018-04-25T00:26:45.870Z,101354.81
2018-04-25T00:28:23.683Z,101354.81
2018-04-25T00:30:01.646Z,101362.85
2018-04-25T00:31:41.465Z,101311.59
2018-04-25T00:33:19.635Z,101284.85
2018-04-25T00:34:56.651Z,101317.39
2018-04-25T00:36:34.549Z,101405.16
2018-04-25T00:38:12.721Z,101475.12
2018-04-25T00:39:50.907Z,101504.55
2018-04-25T00:41:29.042Z,101416.77
2018-04-25T00:43:07.068Z,101398.55
2018-04-25T00:44:45.739Z,101389.13
2018-04-25T00:47:56.570Z,101468.01
2018-04-25T00:49:35.533Z,101383.77
2018-04-25T00:51:13.282Z,101357.08
2018-04-25T00:52:50.650Z,101367.78
2018-04-25T00:54:29.719Z,101347.28
2018-04-25T00:56:08.518Z,101316.97
2018-04-25T00:57:47.258Z,101310.28
2018-04-25T00:59:25.431Z,101303.56
2018-04-25T01:01:02.794Z,101313.86
2018-04-25T01:02:40.753Z,101304.91
2018-04-25T01:04:18.408Z,101291.59
2018-04-25T01:05:56.805Z,101283.11
2018-04-25T01:07:35.412Z,101316.05
2018-04-25T01:09:13.256Z,101304.51
2018-04-25T01:10:50.363Z,101303.20
2018-04-25T01:12:28.389Z,101316.95
2018-04-25T01:14:07.747Z,101377.59
2018-04-25T01:15:44.643Z,101407.88
2018-04-25T01:17:22.179Z,101406.98
2018-04-25T01:18:59.213Z,101418.13
2018-04-25T01:20:38.219Z,101385.58
2018-04-25T01:22:17.470Z,101348.15
2018-04-25T01:23:55.114Z,101285.36
2018-04-25T01:25:33.764Z,101257.23
2018-04-25T01:27:10.989Z,101234.06
2018-04-25T01:28:48.986Z,101236.72
2018-04-25T01:30:27.947Z,101246.59
2018-04-25T01:32:04.647Z,101230.55
2018-04-25T01:33:43.371Z,101198.08
2018-04-25T01:35:20.919Z,101185.63
2018-04-25T01:36:59.329Z,101169.59
2018-04-25T01:38:38.870Z,101182.09
2018-04-25T01:40:17.109Z,101142.44
2018-04-25T01:41:55.912Z,101230.98
2018-04-25T01:43:33.573Z,101267.11
2018-04-25T01:45:23.336Z,101301.87
2018-04-25T01:47:01.246Z,101321.90
2018-04-25T01:48:41.219Z,101315.63
2018-04-25T01:50:20.649Z,101304.53
2018-04-25T01:52:14.947Z,101288.01
2018-04-25T01:54:14.342Z,101275.10
2018-04-25T01:56:13.710Z,101294.68
2018-04-25T01:58:13.433Z,101288.03
2018-04-25T02:00:14.531Z,101176.75
2018-04-25T02:01:55.139Z,101267.56
2018-04-25T02:03:46.218Z,101283.16
2018-04-25T02:05:25.434Z,101288.05
2018-04-25T02:07:04.307Z,101287.13
2018-04-25T02:08:43.846Z,101287.20
2018-04-25T02:10:22.132Z,101288.48
2018-04-25T02:12:01.100Z,101316.07
2018-04-25T02:13:40.705Z,101336.58
2018-04-25T02:15:21.310Z,101330.30
2018-04-25T02:17:00.234Z,101364.22
2018-04-25T02:18:40.260Z,101356.23
2018-04-25T02:20:17.620Z,101365.58
2018-04-25T02:21:53.946Z,101438.66
2018-04-25T02:23:30.443Z,101288.47
2018-04-25T02:25:06.840Z,101279.14
2018-04-25T02:26:43.142Z,101320.99
2018-04-25T02:28:19.561Z,101345.50
2018-04-25T02:29:56.179Z,101407.94
2018-04-25T02:31:33.325Z,101434.61
2018-04-25T02:33:10.141Z,101429.70
2018-04-25T02:34:47.489Z,101394.06
2018-04-25T02:36:27.327Z,101290.23
2018-04-25T02:38:06.543Z,101182.55
2018-04-25T02:39:45.418Z,101320.12
2018-04-25T02:41:24.601Z,101361.10
2018-04-25T02:43:02.995Z,101329.94
2018-04-25T02:44:42.030Z,101323.67
2018-04-25T02:46:21.187Z,101397.20
2018-04-25T02:48:00.321Z,101421.72
2018-04-25T02:49:39.517Z,101393.22
2018-04-25T02:51:16.032Z,101437.25
2018-04-25T02:52:52.471Z,101448.05
2018-04-25T02:54:30.065Z,101442.20
2018-04-25T02:56:06.878Z,101260.47
2018-04-25T02:57:44.267Z,101223.48
2018-04-25T02:59:23.768Z,101299.22
2018-04-25T03:01:02.368Z,101258.22
2018-04-25T03:02:40.162Z,101333.50
2018-04-25T03:04:18.453Z,101345.52
2018-04-25T03:05:57.979Z,101433.28
2018-04-25T03:07:36.782Z,101481.43
2018-04-25T03:09:13.847Z,101353.58
2018-04-25T03:10:50.763Z,101400.35
2018-04-25T03:12:27.188Z,101390.54
2018-04-25T03:14:04.014Z,101391.00
2018-04-25T03:15:40.600Z,101305.89
2018-04-25T03:17:17.298Z,101261.81
2018-04-25T03:18:54.015Z,101247.48
2018-04-25T03:20:30.767Z,101143.37
2018-04-25T03:22:08.028Z,101227.95
2018-04-25T03:23:45.130Z,101268.91
2018-04-25T03:25:21.985Z,101292.05
2018-04-25T03:26:58.279Z,101365.66
2018-04-25T03:28:35.107Z,101425.30
2018-04-25T03:30:12.921Z,101513.11
2018-04-25T03:31:49.639Z,101510.85
2018-04-25T03:33:26.048Z,101325.45
2018-04-25T03:35:03.064Z,101343.27
2018-04-25T03:36:39.333Z,101377.64
2018-04-25T03:38:16.061Z,101407.86
2018-04-25T03:39:53.563Z,101298.30
2018-04-25T03:41:30.173Z,101322.34
2018-04-25T03:43:07.416Z,101296.06
2018-04-25T03:44:43.731Z,101337.09
2018-04-25T03:46:21.043Z,101384.32
2018-04-25T03:47:58.096Z,101376.70
2018-04-25T03:49:35.725Z,101367.81
2018-04-25T03:51:12.028Z,101306.27
2018-04-25T03:52:48.415Z,101121.14
2018-04-25T03:54:25.546Z,101157.64
2018-04-25T03:56:02.326Z,101198.56
2018-04-25T03:57:38.609Z,101205.70
2018-04-25T03:59:14.972Z,100930.81
2018-04-25T04:00:52.376Z,100813.55
2018-04-25T04:02:29.156Z,100932.56
2018-04-25T04:04:04.780Z,100804.65
2018-04-25T04:05:41.897Z,100870.42
2018-04-25T04:07:18.247Z,100961.45
2018-04-25T04:08:54.961Z,101035.77
2018-04-25T04:10:31.184Z,101020.59
2018-04-25T04:12:07.484Z,101130.91
2018-04-25T04:13:43.926Z,101167.81
2018-04-25T04:15:20.901Z,100972.11
2018-04-25T04:16:58.666Z,101019.27
2018-04-25T04:18:35.042Z,100968.55
2018-04-25T04:20:11.406Z,100913.92
2018-04-25T04:21:47.694Z,100704.31
2018-04-25T04:23:24.335Z,100777.55
2018-04-25T04:25:00.665Z,100795.78
2018-04-25T04:26:36.924Z,100819.27
2018-04-25T04:28:13.954Z,100687.86
2018-04-25T04:29:51.393Z,100750.52
2018-04-25T04:31:28.212Z,100695.44
2018-04-25T04:33:04.682Z,100625.80
2018-04-25T04:34:41.184Z,100479.94
2018-04-25T04:36:18.303Z,100506.06
2018-04-25T04:37:55.862Z,100571.23
2018-04-25T04:39:32.176Z,100598.77
2018-04-25T04:41:08.629Z,100729.13
2018-04-25T04:42:45.731Z,100802.41
2018-04-25T04:44:22.045Z,100776.65
2018-04-25T04:45:58.379Z,100626.18
2018-04-25T04:47:35.532Z,100571.69
2018-04-25T04:49:11.877Z,100666.66
2018-04-25T04:50:49.297Z,100631.92
2018-04-25T04:52:26.693Z,100719.41
2018-04-25T04:54:03.050Z,100743.38
2018-04-25T04:55:39.488Z,100536.19
2018-04-25T04:57:16.570Z,100464.80
2018-04-25T04:58:53.121Z,100489.17
2018-04-25T05:00:30.299Z,100652.44
2018-04-25T05:02:06.876Z,100512.25
2018-04-25T05:03:43.974Z,100383.37
2018-04-25T05:05:20.412Z,100339.94
2018-04-25T05:06:58.954Z,100301.92
2018-04-25T05:08:35.497Z,100451.11
2018-04-25T05:10:12.008Z,100616.47
2018-04-25T05:11:49.132Z,100735.38
2018-04-25T05:13:25.931Z,100724.25
2018-04-25T05:15:04.833Z,100794.39
2018-04-25T05:16:41.207Z,100791.80
2018-04-25T05:18:17.538Z,100789.11
2018-04-25T05:19:53.887Z,100714.98
2018-04-25T05:21:30.296Z,100638.19
2018-04-25T05:23:06.995Z,100635.09
2018-04-25T05:24:43.363Z,100719.86
2018-04-25T05:26:19.634Z,100670.20
2018-04-25T05:27:56.023Z,100696.38
2018-04-25T05:29:33.227Z,100685.70
2018-04-25T05:31:09.761Z,100642.69
2018-04-25T05:32:49.358Z,100406.83
2018-04-25T05:34:26.946Z,100342.98
2018-04-25T05:36:04.421Z,100348.42
2018-04-25T05:37:41.543Z,100328.89
2018-04-25T05:41:02.792Z,100331.55
2018-04-25T05:42:39.578Z,100171.33
2018-04-25T05:44:22.081Z,100208.94
2018-04-25T05:45:58.791Z,100208.95
2018-04-25T05:47:35.369Z,100161.12
2018-04-25T05:49:12.070Z,100154.98
2018-04-25T05:50:48.413Z,100210.69
2018-04-25T05:52:24.754Z,100237.29
2018-04-25T05:54:01.153Z,100310.79
2018-04-25T05:55:37.885Z,100330.20
2018-04-25T05:57:14.179Z,100305.51
2018-04-25T05:58:51.525Z,100270.95
2018-04-25T06:00:29.586Z,100341.74
2018-04-25T06:02:06.361Z,100390.52
2018-04-25T06:03:42.764Z,100249.25
2018-04-25T06:05:19.120Z,100273.17
2018-04-25T06:06:55.605Z,100200.10
2018-04-25T06:08:32.814Z,100161.21
2018-04-25T06:10:09.140Z,100063.91
2018-04-25T06:11:45.591Z,99882.69
2018-04-25T06:13:23.951Z,99826.66
2018-04-25T06:15:03.308Z,99841.20
2018-04-25T06:16:41.228Z,99993.13
2018-04-25T06:18:17.702Z,100099.23
2018-04-25T06:19:55.515Z,100069.15
2018-04-25T06:21:32.257Z,99984.73
2018-04-25T06:23:09.123Z,100050.64
2018-04-25T06:24:45.574Z,99923.37
2018-04-25T06:26:22.015Z,100056.41
2018-04-25T06:27:58.879Z,99911.45
2018-04-25T06:29:35.909Z,99774.20
2018-04-25T06:31:12.550Z,99745.89
2018-04-25T06:32:48.972Z,99819.61
2018-04-25T06:34:25.815Z,99975.05
2018-04-25T06:36:03.566Z,100095.72
2018-04-25T06:37:40.147Z,99910.09
2018-04-25T06:39:16.597Z,99867.75
2018-04-25T06:40:54.171Z,99918.48
2018-04-25T06:42:30.527Z,99945.06
2018-04-25T06:44:06.807Z,100067.09
2018-04-25T06:45:43.501Z,100076.75
2018-04-25T06:47:20.205Z,99960.93
2018-04-25T06:48:56.990Z,99953.94
2018-04-25T06:50:33.346Z,100069.64
2018-04-25T06:52:09.783Z,100066.66
2018-04-25T06:53:47.234Z,99852.78
2018-04-25T06:55:23.502Z,99936.67
2018-04-25T06:56:59.809Z,99916.78
2018-04-25T06:58:36.162Z,99890.28
2018-04-25T07:00:14.228Z,99832.87
2018-04-25T07:01:51.358Z,99770.59
2018-04-25T07:03:27.762Z,99717.63
2018-04-25T07:05:04.327Z,99692.58
2018-04-25T07:06:41.686Z,99674.98
2018-04-25T07:08:19.478Z,99832.06
2018-04-25T07:09:56.817Z,99934.42
2018-04-25T07:11:33.213Z,99956.55
2018-04-25T07:13:10.024Z,99910.25
2018-04-25T07:14:46.421Z,99850.19
2018-04-25T07:16:24.486Z,99824.14
2018-04-25T07:18:02.219Z,99923.06
2018-04-25T07:19:39.264Z,100069.39
2018-04-25T07:21:15.681Z,100169.73
2018-04-25T07:22:52.446Z,100225.16
2018-04-25T07:24:28.813Z,100258.70
2018-04-25T07:26:16.890Z,100072.94
2018-04-25T07:27:54.150Z,100142.81
2018-04-25T07:29:31.389Z,100101.69
2018-04-25T07:31:08.031Z,100085.36
2018-04-25T07:32:45.650Z,100202.95
2018-04-25T07:34:22.091Z,100366.41
2018-04-25T07:35:58.975Z,100339.77
2018-04-25T07:37:35.372Z,100348.63
2018-04-25T07:39:12.181Z,100426.55
2018-04-25T07:40:51.903Z,100476.20
2018-04-25T07:42:29.081Z,100480.67
2018-04-25T07:44:05.465Z,100505.06
2018-04-25T07:45:42.925Z,100497.99
2018-04-25T07:47:19.298Z,100497.11
2018-04-25T07:48:58.152Z,100446.58
2018-04-25T07:50:35.037Z,100256.67
2018-04-25T07:52:12.004Z,100273.92
2018-04-25T07:53:48.401Z,100319.09
2018-04-25T07:55:27.761Z,100249.59
2018-04-25T07:57:04.124Z,100254.92
2018-04-25T07:58:40.904Z,100436.03
2018-04-25T08:00:17.528Z,100500.67
2018-04-25T08:01:54.423Z,100459.97
2018-04-25T08:03:30.878Z,100432.05
2018-04-25T08:05:08.181Z,100436.07
2018-04-25T08:06:45.317Z,100545.48
2018-04-25T08:08:21.713Z,100596.48
2018-04-25T08:09:58.459Z,100658.67
2018-04-25T08:11:35.487Z,100693.25
2018-04-25T08:16:33.735Z,100704.83
2018-04-25T08:18:27.101Z,100823.81
2018-04-25T08:20:53.219Z,100828.27
2018-04-25T08:22:29.598Z,100802.09
2018-04-25T08:24:06.441Z,100793.61
2018-04-25T08:25:42.870Z,100818.95
2018-04-25T08:27:20.035Z,100757.66
2018-04-25T08:28:57.566Z,100609.91
2018-04-25T08:30:35.345Z,100581.50
2018-04-25T08:32:11.791Z,100668.56
2018-04-25T08:33:48.213Z,100820.78
2018-04-25T08:35:25.526Z,100994.45
2018-04-25T08:37:02.476Z,101103.47
2018-04-25T08:38:38.936Z,101092.37
2018-04-25T08:40:15.429Z,101102.14
2018-04-25T08:41:51.792Z,101138.61
2018-04-25T08:43:28.555Z,101061.69
2018-04-25T08:45:08.852Z,100645.06
2018-04-25T08:46:45.519Z,100590.92
2018-04-25T08:48:22.637Z,100623.31
2018-04-25T08:49:59.322Z,100638.42
2018-04-25T08:51:35.612Z,100668.14
2018-04-25T08:53:12.028Z,100657.02
2018-04-25T08:54:48.378Z,100627.32
2018-04-25T08:56:25.670Z,100602.03
2018-04-25T08:58:02.016Z,100580.75
2018-04-25T08:59:38.416Z,100587.83
2018-04-25T09:01:15.105Z,100543.53
2018-04-25T09:02:51.961Z,100409.28
2018-04-25T09:04:28.417Z,100317.64
2018-04-25T09:06:04.732Z,100300.38
2018-04-25T09:07:41.528Z,100175.08
2018-04-25T09:09:18.659Z,100117.14
2018-04-25T09:10:55.139Z,100144.14
2018-04-25T09:12:31.443Z,100127.73
2018-04-25T09:14:08.279Z,100111.81
2018-04-25T09:15:45.707Z,100078.23
2018-04-25T09:17:22.231Z,100073.85
2018-04-25T09:18:59.337Z,100103.47
2018-04-25T09:20:38.474Z,100114.08
2018-04-25T09:22:15.664Z,100185.28
2018-04-25T09:23:52.066Z,100240.14
2018-04-25T09:25:29.217Z,100189.24
2018-04-25T09:27:06.367Z,100202.13
2018-04-25T09:28:43.247Z,100244.55
2018-04-25T09:30:19.978Z,100331.82
2018-04-25T09:31:56.415Z,100376.08
2018-04-25T09:33:33.516Z,100528.95
2018-04-25T09:35:11.543Z,100705.06
2018-04-25T09:36:47.939Z,100832.02
2018-04-25T09:38:25.154Z,100946.22
2018-04-25T09:40:01.614Z,101016.42
2018-04-25T09:41:39.483Z,100976.44
2018-04-25T09:43:15.842Z,100934.17
2018-04-25T09:44:52.273Z,100895.10
2018-04-25T09:46:28.649Z,100914.66
2018-04-25T09:48:05.591Z,100865.34
2018-04-25T09:49:42.051Z,100787.23
2018-04-25T09:51:18.595Z,100730.84
2018-04-25T09:52:55.220Z,100758.38
2018-04-25T09:54:32.031Z,100718.91
2018-04-25T09:56:09.252Z,100685.14
2018-04-25T09:57:46.439Z,100696.66
2018-04-25T09:59:22.806Z,100632.78
2018-04-25T10:00:59.934Z,100618.12
2018-04-25T10:02:37.915Z,100516.58
2018-04-25T10:04:15.147Z,100429.33
2018-04-25T10:05:51.496Z,100471.41
2018-04-25T10:07:28.198Z,100569.81
2018-04-25T10:09:04.689Z,100606.59
2018-04-25T10:10:41.866Z,100646.99
2018-04-25T10:12:18.968Z,100711.80
2018-04-25T10:13:56.937Z,100789.96
2018-04-25T10:15:43.136Z,100800.09
2018-04-25T10:17:36.953Z,100883.15
2018-04-25T10:19:13.894Z,100883.63
2018-04-25T10:20:50.172Z,100890.33
2018-04-25T10:22:26.469Z,100810.78
2018-04-25T10:24:02.965Z,100730.88
2018-04-25T10:25:41.686Z,100696.68
2018-04-25T10:27:19.111Z,100777.14
2018-04-25T10:28:55.539Z,100791.28
2018-04-25T10:30:31.897Z,100752.17
2018-04-25T10:32:08.323Z,100793.42
2018-04-25T10:33:45.116Z,100821.43
2018-04-25T10:35:21.408Z,100730.43
2018-04-25T10:36:58.511Z,100743.80
2018-04-25T10:38:35.242Z,100793.51
2018-04-25T10:40:11.746Z,100861.45
2018-04-25T10:41:48.202Z,100851.68
2018-04-25T10:43:24.619Z,100816.16
2018-04-25T10:45:03.843Z,100761.06
2018-04-25T10:46:40.297Z,100782.41
2018-04-25T10:48:16.661Z,100816.59
2018-04-25T10:49:53.054Z,100850.39
2018-04-25T10:51:30.663Z,100880.97
2018-04-25T10:53:07.719Z,100982.73
2018-04-25T10:54:44.188Z,101087.69
2018-04-25T10:56:21.270Z,101223.86
2018-04-25T10:57:58.176Z,101321.83
2018-04-25T10:59:34.543Z,101418.03
2018-04-25T11:01:11.016Z,101354.77
2018-04-25T11:02:47.452Z,101221.16
2018-04-25T11:04:24.248Z,101115.66
2018-04-25T11:06:00.510Z,101173.08
2018-04-25T11:07:37.219Z,101279.03
2018-04-25T11:09:13.611Z,101328.48
2018-04-25T11:10:51.831Z,101412.26
2018-04-25T11:12:28.474Z,101496.08
2018-04-25T11:14:05.798Z,101635.14
2018-04-25T11:15:43.421Z,101613.30
2018-04-25T11:17:20.177Z,101522.35
2018-04-25T11:18:56.786Z,101417.64
2018-04-25T11:20:33.135Z,101237.68
2018-04-25T11:22:14.746Z,100985.42
2018-04-25T11:23:53.446Z,100911.19
2018-04-25T11:25:30.272Z,100881.01
2018-04-25T11:27:06.792Z,101038.77
2018-04-25T11:28:43.182Z,101165.52
2018-04-25T11:30:21.786Z,101255.89
2018-04-25T11:31:58.212Z,101396.17
2018-04-25T11:33:34.588Z,101543.29
2018-04-25T11:35:11.740Z,101558.85
2018-04-25T11:36:48.565Z,101546.41
2018-04-25T11:38:24.888Z,101567.80
2018-04-25T11:40:01.188Z,101573.59
2018-04-25T11:41:37.794Z,101543.27
2018-04-25T11:44:52.150Z,101450.13
2018-04-25T11:46:28.509Z,101478.67
2018-04-25T11:48:04.921Z,101553.59
2018-04-25T11:49:41.601Z,101545.98
2018-04-25T11:51:18.032Z,101472.41
2018-04-25T11:52:55.051Z,101419.38
2018-04-25T11:54:31.470Z,101357.45
2018-04-25T11:56:08.896Z,101268.78
2018-04-25T11:57:45.158Z,101113.89
2018-04-25T11:59:21.583Z,101060.52
2018-04-25T12:00:58.204Z,100959.60
2018-04-25T12:02:35.065Z,100838.74
2018-04-25T12:04:11.436Z,100857.87
2018-04-25T12:05:47.677Z,100871.58
2018-04-25T12:07:24.023Z,100946.66
2018-04-25T12:09:00.798Z,101020.45
2018-04-25T12:10:37.148Z,101102.77
2018-04-25T12:12:13.448Z,101066.27
2018-04-25T12:13:49.795Z,101094.27
2018-04-25T12:15:28.411Z,101146.29
2018-04-25T12:17:05.508Z,101176.16
2018-04-25T12:18:41.848Z,101120.55
2018-04-25T12:20:18.819Z,101111.59
2018-04-25T12:21:55.466Z,101072.47
2018-04-25T12:23:32.757Z,101035.51
2018-04-25T12:25:09.212Z,101025.70
2018-04-25T12:26:45.733Z,100976.44
2018-04-25T12:28:22.693Z,101081.86
2018-04-25T12:29:59.952Z,101128.48
2018-04-25T12:31:37.698Z,101148.09
2018-04-25T12:33:14.330Z,101075.97
2018-04-25T12:34:51.912Z,101037.27
2018-04-25T12:36:29.105Z,100904.78
2018-04-25T12:38:05.404Z,100890.19
2018-04-25T12:39:41.742Z,101001.29
2018-04-25T12:41:18.564Z,101157.36
2018-04-25T12:42:54.873Z,101249.48
2018-04-25T12:44:31.236Z,101306.95
2018-04-25T12:46:08.835Z,101240.62
2018-04-25T12:47:45.794Z,101221.00
2018-04-25T12:49:22.505Z,101293.61
2018-04-25T12:50:58.821Z,101317.16
2018-04-25T12:52:35.732Z,101250.39
2018-04-25T12:54:12.126Z,101282.88
2018-04-25T12:55:48.774Z,101246.83
2018-04-25T12:57:25.089Z,101253.91
2018-04-25T12:59:02.283Z,101242.78
2018-04-25T13:00:40.296Z,101119.53
2018-04-25T13:02:16.763Z,101058.16
2018-04-25T13:03:53.125Z,100978.52
2018-04-25T13:05:29.910Z,101018.05
2018-04-25T13:07:06.779Z,101116.44
2018-04-25T13:08:43.041Z,101123.95
2018-04-25T13:10:19.338Z,101135.53
2018-04-25T13:11:56.507Z,101132.86
2018-04-25T13:13:33.173Z,101108.42
2018-04-25T13:15:10.311Z,101038.03
2018-04-25T13:16:48.228Z,100931.42
2018-04-25T13:18:24.719Z,100902.09
2018-04-25T13:20:01.375Z,100890.55
2018-04-25T13:21:38.682Z,100881.18
2018-04-25T13:23:15.774Z,100805.69
2018-04-25T13:24:52.047Z,100798.57
2018-04-25T13:26:29.306Z,100815.02
2018-04-25T13:28:05.623Z,100851.84
2018-04-25T13:29:42.133Z,100825.20
2018-04-25T13:31:18.647Z,100867.80
2018-04-25T13:32:55.550Z,100878.93
2018-04-25T13:34:32.198Z,101045.16
2018-04-25T13:36:08.645Z,101161.66
2018-04-25T13:37:44.970Z,101211.09
2018-04-25T13:39:22.081Z,101276.95
2018-04-25T13:40:59.822Z,101362.91
2018-04-25T13:42:36.408Z,101402.57
2018-04-25T13:44:13.699Z,101329.92
2018-04-25T13:45:51.994Z,101335.29
2018-04-25T13:47:29.172Z,101318.36
2018-04-25T13:49:05.609Z,101258.27
2018-04-25T13:50:42.143Z,101209.28
2018-04-25T13:52:18.873Z,101179.39
2018-04-25T13:53:55.154Z,101087.81
2018-04-25T13:55:31.608Z,101018.38
2018-04-25T13:57:07.935Z,100976.16
2018-04-25T13:58:44.500Z,101014.81
2018-04-25T14:00:21.087Z,101175.86
2018-04-25T14:01:57.623Z,101232.85
2018-04-25T14:03:34.066Z,101272.46
2018-04-25T14:05:10.811Z,101449.35
2018-04-25T14:06:47.289Z,101541.57
2018-04-25T14:08:27.408Z,101548.31
2018-04-25T14:10:03.900Z,101479.22
2018-04-25T14:11:40.296Z,101454.22
2018-04-25T14:13:16.694Z,101366.38
2018-04-25T14:14:56.305Z,101284.52
2018-04-25T14:16:33.530Z,101269.38
2018-04-25T14:18:10.073Z,101294.65
2018-04-25T14:19:46.926Z,101236.31
2018-04-25T14:21:23.767Z,101186.91
2018-04-25T14:23:03.157Z,101171.77
2018-04-25T14:24:40.229Z,101226.08
2018-04-25T14:26:16.833Z,101231.48
2018-04-25T14:27:53.302Z,101098.34
2018-04-25T14:29:31.113Z,100959.66
2018-04-25T14:31:11.721Z,100879.67
2018-04-25T14:32:49.384Z,100819.72
2018-04-25T14:34:28.869Z,100833.05
2018-04-25T14:36:08.766Z,100899.64
2018-04-25T14:37:48.046Z,100896.03
2018-04-25T14:39:27.598Z,100931.15
2018-04-25T14:41:04.533Z,100935.55
2018-04-25T14:42:41.234Z,100958.67
2018-04-25T14:44:17.550Z,100908.41
2018-04-25T14:45:55.848Z,100860.02
2018-04-25T14:47:32.888Z,100842.30
2018-04-25T14:49:11.901Z,100953.81
2018-04-25T14:50:51.269Z,100920.41
2018-04-25T14:52:28.489Z,100964.87
2018-04-25T14:54:04.762Z,101016.01
2018-04-25T14:55:41.574Z,101032.45
2018-04-25T14:57:17.867Z,101060.44
2018-04-25T14:58:54.249Z,101045.30
2018-04-25T15:00:30.911Z,100982.12
2018-04-25T15:02:10.216Z,100866.63
2018-04-25T15:03:47.466Z,100812.87
2018-04-25T15:05:25.308Z,100808.41
2018-04-25T15:07:02.348Z,100821.80
2018-04-25T15:08:41.717Z,100871.06
2018-04-25T15:10:23.053Z,100963.90
2018-04-25T15:12:01.285Z,100964.80
2018-04-25T15:13:38.028Z,100949.64
2018-04-25T15:15:16.908Z,100914.13
2018-04-25T15:16:53.710Z,100864.80
2018-04-25T15:18:32.926Z,100848.83
2018-04-25T15:20:09.266Z,100786.16
2018-04-25T15:21:47.290Z,100813.28
2018-04-25T15:23:24.683Z,100812.38
2018-04-25T15:25:01.101Z,100850.11
2018-04-25T15:26:37.600Z,100871.84
2018-04-25T15:28:15.214Z,100940.27
2018-04-25T15:29:51.643Z,101007.80
2018-04-25T15:33:09.011Z,100943.36
2018-04-25T15:34:45.831Z,100897.19
2018-04-25T15:36:22.237Z,100942.91
2018-04-25T15:37:58.886Z,101034.52
2018-04-25T15:39:41.882Z,101041.15
2018-04-25T15:41:19.503Z,101001.61
2018-04-25T15:42:56.056Z,101052.23
2018-04-25T15:44:32.478Z,101018.49
2018-04-25T15:46:08.809Z,101056.71
2018-04-25T15:47:45.978Z,101150.95
2018-04-25T15:49:22.574Z,101151.44
2018-04-25T15:50:59.793Z,101210.64
2018-04-25T15:52:36.818Z,101323.28
2018-04-25T15:54:13.495Z,101300.11
2018-04-25T15:55:49.888Z,101287.64
2018-04-25T15:57:26.274Z,101208.37
2018-04-25T16:00:48.276Z,101162.55
2018-04-25T16:02:25.532Z,101170.50
2018-04-25T16:04:04.265Z,101169.20
2018-04-25T16:05:41.135Z,101190.11
2018-04-25T16:07:18.041Z,101184.28
2018-04-25T16:08:54.438Z,101064.16
2018-04-25T16:10:31.044Z,100982.36
2018-04-25T16:12:07.516Z,100982.34
2018-04-25T16:13:44.530Z,100960.95
2018-04-25T16:15:21.184Z,100848.55
2018-04-25T16:16:57.842Z,100877.95
2018-04-25T16:18:35.289Z,100900.55
2018-04-25T16:20:12.969Z,100905.44
2018-04-25T16:21:49.787Z,100950.31
2018-04-25T16:23:26.686Z,100939.64
2018-04-25T16:25:04.002Z,100849.45
2018-04-25T16:26:41.484Z,100819.66
2018-04-25T16:28:18.034Z,100800.55
2018-04-25T16:29:56.164Z,100836.50
2018-04-25T16:31:33.328Z,100809.45
2018-04-25T16:33:10.330Z,100742.34
2018-04-25T16:34:46.768Z,100757.03
2018-04-25T16:36:23.191Z,100756.58
2018-04-25T16:37:59.666Z,100752.15
2018-04-25T16:39:36.099Z,100697.55
2018-04-25T16:41:13.316Z,100663.86
2018-04-25T16:42:49.695Z,100669.55
2018-04-25T16:44:26.075Z,100685.05
2018-04-25T16:46:03.391Z,100687.30
2018-04-25T16:47:40.184Z,100697.06
2018-04-25T16:49:17.408Z,100696.60
2018-04-25T16:50:54.109Z,100624.28
2018-04-25T16:52:31.091Z,100613.19
2018-04-25T16:54:07.825Z,100565.22
2018-04-25T16:55:44.543Z,100526.69
2018-04-25T16:57:21.183Z,100516.02
2018-04-25T16:58:58.923Z,100468.14
2018-04-25T17:00:39.719Z,100459.78
2018-04-25T17:02:16.422Z,100492.07
2018-04-25T17:03:52.914Z,100476.59
2018-04-25T17:05:29.916Z,100490.73
2018-04-25T17:08:41.746Z,100442.41
2018-04-25T17:10:18.240Z,100418.95
2018-04-25T17:11:55.140Z,100440.63
2018-04-25T17:13:42.701Z,100496.02
2018-04-25T17:15:22.821Z,100533.67
2018-04-25T17:16:59.797Z,100586.09
2018-04-25T17:18:37.356Z,100650.78
2018-04-25T17:20:15.510Z,100735.56
2018-04-25T17:21:51.980Z,100751.53
2018-04-25T17:23:28.559Z,100706.25
2018-04-25T17:25:05.707Z,100662.30
2018-04-25T17:26:42.965Z,100650.78
2018-04-25T17:28:20.160Z,100664.09
2018-04-25T17:29:57.265Z,100664.54
2018-04-25T17:31:35.687Z,100630.37
2018-04-25T17:33:12.355Z,100617.92
2018-04-25T17:34:48.812Z,100692.03
2018-04-25T17:36:25.261Z,100759.97
2018-04-25T17:38:02.324Z,100814.11
2018-04-25T17:39:39.148Z,100854.11
2018-04-25T17:41:15.745Z,100845.67
2018-04-25T17:42:52.381Z,100791.00
2018-04-25T17:44:29.218Z,100782.57
2018-04-25T17:46:06.141Z,100891.84
2018-04-25T17:47:42.614Z,100896.30
2018-04-25T17:49:19.939Z,100886.03
2018-04-25T17:50:56.675Z,100891.38
2018-04-25T17:52:33.119Z,100877.65
2018-04-25T17:54:09.511Z,100887.38
2018-04-25T17:55:46.040Z,100878.51
2018-04-25T17:57:23.029Z,100813.58
2018-04-25T17:58:59.527Z,100789.19
2018-04-25T18:00:37.835Z,100785.20
2018-04-25T18:02:14.350Z,100826.07
2018-04-25T18:03:52.315Z,100854.00
2018-04-25T18:05:29.614Z,100873.64
2018-04-25T18:07:06.092Z,100889.14
2018-04-25T18:08:43.778Z,100868.68
2018-04-25T18:10:20.760Z,100887.86
2018-04-25T18:11:58.063Z,100974.91
2018-04-25T18:13:34.563Z,101054.51
2018-04-25T18:15:13.642Z,101054.07
2018-04-25T18:16:51.070Z,100974.88
2018-04-25T18:18:27.535Z,100942.44
2018-04-25T18:20:04.088Z,100949.57
2018-04-25T18:21:40.940Z,100940.23
2018-04-25T18:23:17.540Z,100905.50
2018-04-25T18:24:55.595Z,100847.34
2018-04-25T18:26:32.717Z,100835.36
2018-04-25T18:28:09.343Z,100827.80
2018-04-25T18:29:46.193Z,100831.73
2018-04-25T18:31:22.983Z,100857.53
2018-04-25T18:32:59.400Z,100831.33
2018-04-25T18:34:36.094Z,100771.84
2018-04-25T18:36:13.166Z,100652.02
2018-04-25T18:37:49.790Z,100552.66
2018-04-25T18:39:26.412Z,100487.48
2018-04-25T18:41:02.912Z,100518.02
2018-04-25T18:42:40.311Z,100565.93
2018-04-25T18:44:23.943Z,100565.03
2018-04-25T18:46:01.408Z,100480.36
2018-04-25T18:47:38.962Z,100477.72